createdAt,value
2022-11-09T00:01:14.578Z,11.58
2022-11-09T00:03:43.960Z,11.60
2022-11-09T00:06:16.591Z,11.71
2022-11-09T00:08:46.539Z,11.77
2022-11-09T00:11:23.532Z,11.65
2022-11-09T00:13:54.169Z,11.67
2022-11-09T00:16:27.942Z,11.70
2022-11-09T00:19:03.258Z,11.73
2022-11-09T00:21:37.549Z,11.79
2022-11-09T00:24:07.356Z,11.82
2022-11-09T00:26:36.677Z,11.92
2022-11-09T00:29:12.348Z,11.98
2022-11-09T00:31:43.955Z,12.00
2022-11-09T00:34:18.812Z,11.97
2022-11-09T00:36:48.768Z,11.93
2022-11-09T00:39:18.309Z,11.95
2022-11-09T00:41:51.202Z,12.06
2022-11-09T00:44:23.023Z,12.11
2022-11-09T00:46:52.851Z,12.17
2022-11-09T00:49:25.305Z,12.22
2022-11-09T00:51:58.183Z,12.25
2022-11-09T00:54:27.720Z,12.35
2022-11-09T00:56:59.214Z,12.33
2022-11-09T00:59:32.245Z,12.36
2022-11-09T01:02:04.395Z,12.47
2022-11-09T01:04:33.228Z,12.30
2022-11-09T01:07:03.136Z,12.27
2022-11-09T01:09:33.625Z,12.39
2022-11-09T01:12:03.862Z,12.39
2022-11-09T01:14:46.878Z,12.51
2022-11-09T01:17:15.807Z,12.52
2022-11-09T01:19:47.576Z,12.51
2022-11-09T01:22:20.475Z,12.40
2022-11-09T01:24:53.057Z,12.37
2022-11-09T01:27:26.066Z,12.32
2022-11-09T01:30:00.258Z,12.46
2022-11-09T01:32:34.611Z,12.50
2022-11-09T01:35:04.073Z,12.45
2022-11-09T01:37:35.691Z,12.52
2022-11-09T01:40:10.958Z,12.52
2022-11-09T01:42:45.236Z,12.44
2022-11-09T01:45:33.848Z,12.47
2022-11-09T01:48:15.900Z,12.39
2022-11-09T01:50:57.069Z,12.37
2022-11-09T01:53:38.227Z,12.24
2022-11-09T01:56:12.691Z,12.16
2022-11-09T01:59:07.296Z,12.01
2022-11-09T02:01:40.241Z,11.96
2022-11-09T02:04:20.333Z,11.90
2022-11-09T02:06:52.566Z,11.98
2022-11-09T02:09:31.614Z,11.95
2022-11-09T02:12:04.727Z,11.87
2022-11-09T02:14:39.046Z,11.79
2022-11-09T02:17:16.429Z,11.85
2022-11-09T02:19:45.820Z,11.90
2022-11-09T02:22:19.320Z,11.90
2022-11-09T02:24:53.946Z,11.83
2022-11-09T02:27:32.056Z,11.73
2022-11-09T02:30:17.031Z,11.72
2022-11-09T02:32:50.207Z,11.69
2022-11-09T02:35:19.817Z,11.76
2022-11-09T02:37:53.226Z,11.66
2022-11-09T02:40:33.148Z,11.70
2022-11-09T02:43:05.087Z,11.73
2022-11-09T02:45:35.318Z,11.83
2022-11-09T02:48:08.761Z,11.81
2022-11-09T02:50:43.569Z,11.84
2022-11-09T02:53:14.989Z,11.76
2022-11-09T02:55:44.138Z,11.70
2022-11-09T02:58:13.206Z,11.74
2022-11-09T03:00:45.318Z,11.71
2022-11-09T03:03:17.386Z,11.53
2022-11-09T03:05:46.712Z,11.43
2022-11-09T03:08:18.989Z,11.35
2022-11-09T03:10:55.179Z,11.41
2022-11-09T03:13:26.402Z,11.36
2022-11-09T03:15:56.515Z,11.35
2022-11-09T03:18:35.147Z,11.41
2022-11-09T03:21:10.432Z,11.36
2022-11-09T03:23:44.930Z,11.31
2022-11-09T03:26:15.140Z,11.38
2022-11-09T03:28:48.202Z,11.54
2022-11-09T03:31:18.385Z,11.49
2022-11-09T03:33:47.530Z,11.45
2022-11-09T03:36:20.240Z,11.55
2022-11-09T03:38:57.757Z,11.63
2022-11-09T03:41:34.551Z,11.61
2022-11-09T03:44:06.878Z,11.63
2022-11-09T03:46:37.207Z,11.63
2022-11-09T03:49:06.439Z,11.62
2022-11-09T03:51:46.300Z,11.70
2022-11-09T03:54:17.133Z,11.71
2022-11-09T03:56:50.026Z,11.78
2022-11-09T03:59:19.725Z,11.87
2022-11-09T04:01:48.818Z,11.90
2022-11-09T04:04:20.540Z,11.92
2022-11-09T04:06:50.327Z,12.03
2022-11-09T04:09:35.192Z,12.25
2022-11-09T04:12:04.398Z,12.42
2022-11-09T04:14:41.822Z,12.60
2022-11-09T04:17:11.028Z,12.51
2022-11-09T04:19:43.567Z,12.53
2022-11-09T04:22:14.374Z,12.56
2022-11-09T04:24:57.830Z,12.53
2022-11-09T04:27:38.177Z,12.55
2022-11-09T04:30:12.082Z,12.50
2022-11-09T04:32:41.825Z,12.57
2022-11-09T04:35:17.392Z,12.50
2022-11-09T04:37:56.186Z,12.41
2022-11-09T04:40:33.750Z,12.36
2022-11-09T04:43:07.273Z,12.28
2022-11-09T04:45:36.935Z,12.22
2022-11-09T04:48:09.424Z,12.16
2022-11-09T04:50:40.334Z,12.20
2022-11-09T04:53:15.105Z,12.25
2022-11-09T04:55:48.569Z,12.28
2022-11-09T04:58:24.945Z,12.27
2022-11-09T05:01:10.671Z,12.27
2022-11-09T05:03:40.580Z,12.27
2022-11-09T05:06:31.873Z,12.13
2022-11-09T05:09:05.198Z,12.09
2022-11-09T05:11:37.495Z,12.13
2022-11-09T05:14:06.565Z,12.27
2022-11-09T05:16:36.894Z,12.44
2022-11-09T05:19:07.701Z,12.33
2022-11-09T05:21:37.583Z,12.48
2022-11-09T05:24:13.811Z,12.46
2022-11-09T05:26:48.960Z,12.42
2022-11-09T05:29:18.124Z,12.49
2022-11-09T05:31:51.994Z,12.45
2022-11-09T05:34:23.627Z,12.40
2022-11-09T05:36:53.143Z,12.38
2022-11-09T05:39:25.423Z,12.33
2022-11-09T05:42:03.571Z,12.32
2022-11-09T05:44:35.889Z,12.27
2022-11-09T05:47:08.256Z,12.37
2022-11-09T05:49:41.418Z,12.42
2022-11-09T05:52:23.595Z,12.35
2022-11-09T05:55:08.883Z,12.39
2022-11-09T05:57:42.642Z,12.46
2022-11-09T06:00:13.859Z,12.48
2022-11-09T06:02:54.018Z,12.48
2022-11-09T06:05:25.695Z,12.44
2022-11-09T06:07:59.491Z,12.41
2022-11-09T06:10:36.283Z,12.36
2022-11-09T06:13:08.240Z,12.42
2022-11-09T06:15:45.787Z,12.37
2022-11-09T06:18:33.525Z,12.47
2022-11-09T06:21:14.792Z,12.43
2022-11-09T06:23:45.321Z,12.45
2022-11-09T06:26:14.773Z,12.36
2022-11-09T06:28:56.701Z,12.38
2022-11-09T06:31:30.084Z,12.33
2022-11-09T06:34:04.767Z,12.27
2022-11-09T06:36:39.998Z,12.33
2022-11-09T06:39:10.817Z,12.27
2022-11-09T06:41:43.368Z,12.26
2022-11-09T06:44:27.168Z,12.24
2022-11-09T06:46:56.335Z,12.23
2022-11-09T06:49:51.338Z,12.37
2022-11-09T06:52:20.962Z,12.34
2022-11-09T06:54:57.266Z,12.42
2022-11-09T06:57:28.454Z,12.41
2022-11-09T07:00:00.440Z,12.44
2022-11-09T07:02:30.471Z,12.50
2022-11-09T07:05:05.600Z,12.56
2022-11-09T07:07:34.837Z,12.66
2022-11-09T07:10:06.759Z,12.71
2022-11-09T07:12:38.793Z,12.82
2022-11-09T07:15:19.190Z,12.90
2022-11-09T07:17:49.388Z,12.91
2022-11-09T07:20:20.846Z,13.02
2022-11-09T07:22:55.719Z,13.02
2022-11-09T07:26:21.408Z,13.05
2022-11-09T07:29:22.464Z,13.01
2022-11-09T07:33:01.996Z,13.01
2022-11-09T07:35:21.545Z,13.11
2022-11-09T07:37:51.513Z,12.93
2022-11-09T07:40:24.971Z,13.10
2022-11-09T07:42:59.955Z,13.05
2022-11-09T07:45:37.348Z,13.10
2022-11-09T07:48:18.449Z,13.17
2022-11-09T07:50:47.797Z,13.11
2022-11-09T07:56:11.310Z,13.35
2022-11-09T07:58:55.347Z,13.47
2022-11-09T08:01:25.930Z,13.49
2022-11-09T08:04:04.558Z,13.59
2022-11-09T08:06:43.881Z,13.55
2022-11-09T08:09:14.024Z,13.65
2022-11-09T08:11:46.172Z,13.52
2022-11-09T08:14:21.675Z,13.49
2022-11-09T08:16:59.195Z,13.61
2022-11-09T08:19:38.730Z,13.61
2022-11-09T08:22:16.798Z,13.73
2022-11-09T08:24:50.464Z,13.93
2022-11-09T08:27:20.210Z,13.85
2022-11-09T08:29:50.256Z,13.85
2022-11-09T08:32:25.586Z,13.94
2022-11-09T08:35:02.651Z,13.94
2022-11-09T08:37:58.513Z,13.92
2022-11-09T08:40:28.836Z,13.87
2022-11-09T08:43:12.303Z,13.96
2022-11-09T09:20:13.574Z,14.69
2022-11-09T09:26:37.923Z,14.70
2022-11-09T09:32:37.040Z,15.00
2022-11-09T09:39:46.876Z,14.99
2022-11-09T09:55:08.481Z,15.13
2022-11-09T09:58:55.270Z,15.26
2022-11-09T10:05:32.452Z,15.20
2022-11-09T11:04:59.701Z,16.47
2022-11-09T11:08:07.895Z,16.55
2022-11-09T11:14:25.460Z,16.83
2022-11-09T11:17:00.663Z,16.96
2022-11-09T11:19:42.917Z,17.32
2022-11-09T11:22:31.556Z,16.83
2022-11-09T11:25:27.314Z,17.47
2022-11-09T11:29:12.153Z,17.37
2022-11-09T11:33:17.341Z,16.96
2022-11-09T11:44:09.658Z,15.31
2022-11-09T11:46:48.052Z,15.19
2022-11-09T11:54:24.278Z,15.57
2022-11-09T11:57:46.181Z,15.99
2022-11-09T12:08:16.404Z,16.26
2022-11-09T12:11:40.142Z,16.07
2022-11-09T12:14:34.598Z,15.67
2022-11-09T12:17:44.264Z,15.48
2022-11-09T12:20:43.007Z,15.33
2022-11-09T12:23:54.714Z,15.58
2022-11-09T12:27:10.904Z,15.95
2022-11-09T12:30:12.486Z,15.97
2022-11-09T12:32:56.378Z,15.93
2022-11-09T12:35:46.127Z,15.95
2022-11-09T12:38:22.517Z,15.79
2022-11-09T12:41:05.348Z,16.01
2022-11-09T12:44:57.082Z,16.17
2022-11-09T12:59:37.806Z,15.76
2022-11-09T13:05:57.317Z,15.49
2022-11-09T13:08:45.416Z,15.48
2022-11-09T13:11:47.964Z,15.44
2022-11-09T13:15:44.845Z,15.47
2022-11-09T13:20:40.549Z,15.46
2022-11-09T13:27:05.156Z,15.47
2022-11-09T13:30:00.826Z,15.21
2022-11-09T13:32:36.411Z,15.17
2022-11-09T13:35:24.212Z,15.15
2022-11-09T13:38:28.249Z,15.02
2022-11-09T13:41:54.694Z,15.08
2022-11-09T13:49:04.504Z,14.95
2022-11-09T13:55:42.140Z,14.90
2022-11-09T13:58:39.921Z,14.74
2022-11-09T14:02:24.775Z,14.83
2022-11-09T14:05:06.298Z,14.70
2022-11-09T14:07:45.522Z,14.74
2022-11-09T14:11:12.666Z,14.88
2022-11-09T14:14:33.996Z,14.70
2022-11-09T14:17:24.174Z,14.69
2022-11-09T14:20:13.200Z,14.70
2022-11-09T14:22:43.793Z,14.67
2022-11-09T14:28:27.637Z,14.66
2022-11-09T14:31:04.526Z,14.74
2022-11-09T14:33:36.553Z,14.87
2022-11-09T14:36:20.604Z,15.23
2022-11-09T14:45:55.390Z,15.11
2022-11-09T14:48:49.867Z,14.53
2022-11-09T14:51:57.304Z,14.00
2022-11-09T14:54:32.236Z,13.76
2022-11-09T14:57:19.934Z,13.54
2022-11-09T14:59:57.679Z,13.47
2022-11-09T15:02:50.739Z,13.46
2022-11-09T15:06:08.205Z,13.15
2022-11-09T15:08:47.559Z,12.87
2022-11-09T15:11:57.239Z,12.69
2022-11-09T15:14:43.023Z,12.51
2022-11-09T15:17:20.727Z,12.49
2022-11-09T15:20:03.133Z,12.36
2022-11-09T15:23:33.353Z,12.25
2022-11-09T15:26:03.374Z,12.15
2022-11-09T15:28:55.427Z,12.05
2022-11-09T15:31:31.868Z,11.90
2022-11-09T15:34:27.293Z,11.80
2022-11-09T15:37:01.578Z,11.67
2022-11-09T15:39:38.169Z,11.60
2022-11-09T15:42:07.655Z,11.53
2022-11-09T15:44:45.185Z,11.50
2022-11-09T15:47:49.977Z,11.40
2022-11-09T15:50:27.292Z,11.44
2022-11-09T15:53:00.995Z,11.44
2022-11-09T15:55:31.732Z,11.42
2022-11-09T15:58:02.447Z,11.34
2022-11-09T16:00:38.039Z,11.25
2022-11-09T16:03:17.600Z,11.22
2022-11-09T16:05:47.764Z,11.08
2022-11-09T16:08:17.153Z,11.01
2022-11-09T16:18:25.915Z,11.11
2022-11-09T16:20:58.839Z,11.08
2022-11-09T16:23:42.646Z,11.06
2022-11-09T16:26:19.016Z,11.10
2022-11-09T16:28:56.389Z,11.14
2022-11-09T16:31:50.918Z,11.15
2022-11-09T16:34:20.814Z,11.24
2022-11-09T16:36:57.390Z,11.20
2022-11-09T16:39:44.216Z,11.17
2022-11-09T16:42:17.713Z,11.17
2022-11-09T16:44:58.298Z,11.07
2022-11-09T16:47:27.270Z,11.11
2022-11-09T16:49:56.720Z,11.10
2022-11-09T16:52:26.296Z,11.10
2022-11-09T16:54:56.991Z,11.23
2022-11-09T16:57:37.875Z,11.20
2022-11-09T17:00:20.140Z,11.06
2022-11-09T17:02:52.819Z,11.05
2022-11-09T17:05:28.003Z,11.10
2022-11-09T17:08:00.834Z,11.19
2022-11-09T17:10:30.808Z,11.15
2022-11-09T17:13:08.760Z,11.13
2022-11-09T17:15:48.612Z,11.13
2022-11-09T17:18:24.268Z,11.10
2022-11-09T17:20:54.397Z,11.18
2022-11-09T17:23:23.353Z,11.08
2022-11-09T17:26:05.449Z,11.06
2022-11-09T17:28:44.529Z,11.09
2022-11-09T17:31:21.641Z,11.09
2022-11-09T17:34:01.113Z,11.23
2022-11-09T17:37:02.883Z,11.32
2022-11-09T17:39:37.839Z,11.26
2022-11-09T17:42:07.871Z,11.36
2022-11-09T17:44:45.597Z,11.35
2022-11-09T17:47:16.567Z,11.39
2022-11-09T17:49:51.540Z,11.46
2022-11-09T17:52:31.581Z,11.54
2022-11-09T17:55:13.293Z,11.65
2022-11-09T17:57:50.293Z,11.58
2022-11-09T18:00:37.774Z,11.55
2022-11-09T18:03:08.451Z,11.48
2022-11-09T18:05:41.064Z,11.42
2022-11-09T18:08:15.223Z,11.52
2022-11-09T18:10:46.982Z,11.42
2022-11-09T18:13:24.797Z,11.42
2022-11-09T18:15:58.293Z,11.29
2022-11-09T18:18:35.171Z,11.26
2022-11-09T18:21:24.827Z,11.28
2022-11-09T18:23:57.637Z,11.27
2022-11-09T18:26:31.692Z,11.37
2022-11-09T18:29:05.519Z,11.44
2022-11-09T18:31:36.323Z,11.51
2022-11-09T18:34:08.621Z,11.55
2022-11-09T18:36:38.481Z,11.67
2022-11-09T18:39:15.548Z,11.65
2022-11-09T18:41:51.627Z,11.57
2022-11-09T18:44:31.623Z,11.50
2022-11-09T18:47:05.229Z,11.47
2022-11-09T18:49:51.799Z,11.35
2022-11-09T18:52:37.103Z,11.19
2022-11-09T18:55:14.763Z,11.02
2022-11-09T18:57:44.531Z,10.86
2022-11-09T19:00:28.159Z,10.76
2022-11-09T19:03:07.335Z,10.70
2022-11-09T19:05:42.632Z,10.70
2022-11-09T19:08:18.534Z,10.62
2022-11-09T19:10:53.495Z,10.66
2022-11-09T19:13:22.990Z,10.60
2022-11-09T19:19:03.453Z,10.51
2022-11-09T19:21:49.725Z,10.61
2022-11-09T19:24:40.242Z,10.59
2022-11-09T19:27:15.609Z,10.69
2022-11-09T19:29:54.951Z,10.71
2022-11-09T19:32:32.508Z,10.92
2022-11-09T19:35:10.711Z,10.99
2022-11-09T19:37:45.232Z,11.01
2022-11-09T19:40:17.933Z,11.00
2022-11-09T19:42:53.776Z,10.97
2022-11-09T19:45:59.599Z,10.92
2022-11-09T19:48:56.545Z,10.88
2022-11-09T19:51:40.726Z,10.84
2022-11-09T19:54:14.655Z,10.89
2022-11-09T19:56:45.438Z,10.93
2022-11-09T19:59:31.132Z,11.13
2022-11-09T20:02:10.087Z,11.45
2022-11-09T20:04:48.033Z,11.54
2022-11-09T20:07:25.645Z,11.60
2022-11-09T20:09:58.049Z,11.55
2022-11-09T20:12:48.840Z,11.54
2022-11-09T20:15:19.972Z,11.47
2022-11-09T20:18:03.329Z,11.38
2022-11-09T20:20:37.824Z,11.35
2022-11-09T20:23:12.033Z,11.30
2022-11-09T20:25:54.763Z,11.32
2022-11-09T20:28:28.258Z,11.21
2022-11-09T20:31:08.862Z,11.20
2022-11-09T20:33:44.084Z,11.09
2022-11-09T20:36:15.023Z,11.07
2022-11-09T20:39:09.932Z,11.07
2022-11-09T20:41:39.160Z,11.15
2022-11-09T20:44:14.819Z,11.06
2022-11-09T20:46:51.026Z,11.07
2022-11-09T20:49:27.021Z,11.09
2022-11-09T20:54:51.794Z,11.29
2022-11-09T20:57:49.030Z,11.20
2022-11-09T21:00:26.537Z,11.31
2022-11-09T21:03:52.372Z,11.27
2022-11-09T21:06:23.653Z,11.13
2022-11-09T21:09:02.368Z,11.07
2022-11-09T21:12:01.596Z,11.07
2022-11-09T21:14:34.464Z,10.99
2022-11-09T21:17:08.975Z,10.99
2022-11-09T21:19:41.350Z,10.88
2022-11-09T21:22:11.988Z,10.90
2022-11-09T21:24:58.647Z,10.92
2022-11-09T21:27:53.629Z,10.91
2022-11-09T21:30:34.270Z,10.99
2022-11-09T21:33:08.970Z,11.02
2022-11-09T21:35:38.147Z,11.08
2022-11-09T21:38:18.540Z,11.13
2022-11-09T21:40:53.794Z,11.13
2022-11-09T21:43:28.967Z,11.13
2022-11-09T21:46:04.857Z,11.23
2022-11-09T21:48:38.699Z,11.21
2022-11-09T21:51:15.631Z,11.24
2022-11-09T21:53:51.723Z,11.15
2022-11-09T21:56:29.998Z,11.19
2022-11-09T21:59:03.638Z,11.27
2022-11-09T22:01:35.417Z,11.22
2022-11-09T22:04:08.435Z,11.25
2022-11-09T22:07:30.516Z,11.24
2022-11-09T22:10:09.925Z,11.15
2022-11-09T22:13:09.253Z,11.23
2022-11-09T22:16:04.979Z,11.35
2022-11-09T22:19:02.449Z,11.36
2022-11-09T22:21:34.410Z,11.39
2022-11-09T22:24:06.734Z,11.40
2022-11-09T22:26:42.366Z,11.43
2022-11-09T22:29:11.809Z,11.45
2022-11-09T22:32:03.054Z,11.36
2022-11-09T22:34:36.441Z,11.46
2022-11-09T22:37:10.149Z,11.42
2022-11-09T22:39:44.367Z,11.47
2022-11-09T22:42:28.814Z,11.51
2022-11-09T22:44:58.552Z,11.55
2022-11-09T22:47:39.007Z,11.50
2022-11-09T22:50:17.502Z,11.45
2022-11-09T22:52:53.457Z,11.41
2022-11-09T22:55:23.790Z,11.40
2022-11-09T22:57:58.971Z,11.30
2022-11-09T23:00:32.530Z,11.29
2022-11-09T23:03:18.809Z,11.25
2022-11-09T23:05:55.795Z,11.21
2022-11-09T23:08:25.759Z,11.17
2022-11-09T23:10:57.963Z,11.20
2022-11-09T23:13:33.802Z,11.21
2022-11-09T23:16:07.527Z,11.23
2022-11-09T23:19:04.959Z,11.17
2022-11-09T23:21:47.687Z,11.18
2022-11-09T23:24:39.051Z,11.13
2022-11-09T23:27:14.023Z,11.12
2022-11-09T23:29:57.140Z,11.13
2022-11-09T23:32:31.803Z,11.05
2022-11-09T23:35:03.933Z,11.05
2022-11-09T23:37:48.195Z,11.02
2022-11-09T23:40:19.884Z,10.97
2022-11-09T23:42:57.631Z,10.98
2022-11-09T23:45:53.204Z,10.94
2022-11-09T23:48:28.983Z,10.76
2022-11-09T23:51:07.836Z,10.76
2022-11-09T23:53:43.738Z,10.64
2022-11-09T23:56:17.089Z,10.65
2022-11-09T23:58:51.903Z,10.68
